This is the latest recevied weather packets stored in our database for station/object KJ5FA-10. If no packets are shown the sender has not sent any weather packets the latest 10 day(s).
| Time | Temp. | Humidity | Pressure | Rain* | Wind** | Luminosity | Snow |
|---|---|---|---|---|---|---|---|
| 1788211477 | 37.22° C | 36% | 1016.2 hPa | 0 mm | - | - | - |
| 1788210578 | 37.78° C | 35% | 1016.3 hPa | 0 mm | - | - | - |
| 1788209678 | 36.67° C | 36% | 1016.7 hPa | 0 mm | - | - | - |
| 1788208777 | 37.22° C | 35% | 1016.6 hPa | 0 mm | - | - | - |
| 1788207877 | 36.67° C | 36% | 1016.8 hPa | 0 mm | - | - | - |
| 1788206978 | 36.11° C | 37% | 1017 hPa | 0 mm | - | - | - |
| 1788206077 | 37.22° C | 35% | 1017.1 hPa | 0 mm | - | - | - |
| 1788205178 | 36.67° C | 33% | 1017.5 hPa | 0 mm | - | - | - |
| 1788204279 | 36.11° C | 37% | 1017.4 hPa | 0 mm | - | - | - |
| 1788201578 | 35.56° C | 42% | 1017.8 hPa | 0 mm | - | - | - |
| 1788200678 | 35.56° C | 40% | 1018.2 hPa | 0 mm | - | - | - |
| 1788199778 | 35.56° C | 41% | 1018.3 hPa | 0 mm | - | - | - |
| 1788198877 | 35.56° C | 42% | 1018.6 hPa | 0 mm | - | - | - |
| 1788197079 | 34.44° C | 45% | 1019 hPa | 0 mm | - | - | - |
| 1788193478 | 32.78° C | 52% | 1019.3 hPa | 0 mm | - | - | - |
| 1788192578 | 32.78° C | 56% | 1019.6 hPa | 0 mm | - | - | - |
| 1788190779 | 30.56° C | 61% | 1019.6 hPa | 0 mm | - | - | - |
| 1788188979 | 28.89° C | 64% | 1019.6 hPa | 0 mm | - | - | - |
| 1788185379 | 27.22° C | 68% | 1019.5 hPa | 0 mm | - | - | - |
| 1788184478 | 26.11° C | 73% | 1019.5 hPa | 0 mm | - | - | - |
| 1788182678 | 23.33° C | 81% | 1019.6 hPa | 0 mm | - | - | - |
| 1788181778 | 22.22° C | 86% | 1019.3 hPa | 0 mm | - | - | - |
| 1788179079 | 20.56° C | 91% | 1019.2 hPa | 0 mm | - | - | - |
| 1788176379 | 20.56° C | 90% | 1018.3 hPa | 0 mm | - | - | - |
| 1788174579 | 21.11° C | 89% | 1018.3 hPa | 0 mm | - | - | - |
* Rain latest hour (hover to see other rain measurements)
** Current wind speed in m/s (hover to see current wind gust speed)